Tres Piedras, NM (87577)

2:30 PM MDT on September 04, 2015 (GMT -0600)
San Cristobal | | Change Station
CLOSE
Current Station
Personal Weather Station
Location: San Cristobal, NM
Elevation: 7428 ft
Nearby Weather Stations

Elev 7428 ft 36.60 °N, 105.64 °W | Updated 15 seconds ago

Mostly Cloudy
Mostly Cloudy
70.7 °F
Feels Like 77 °F
N
3.0
Wind Variable Wind from SSW
Gusts 4.0 mph

Today
High -- | Low -- °F
--% Chance of Precip.
Yesterday
High -- | Low -- °F
Precip. -- in
6:37 AM 7:27 PM
Waning Gibbous, 56% visible
Pressure 30.21 in
Visibility 10.0 miles
Clouds Mostly Cloudy 8000 ft
Mostly Cloudy 9000 ft
Overcast 11000 ft
Heat Index 77 °F
Dew Point 45 °F
Humidity 40%
Rainfall 0.00 in
Snow Depth Not available.
UV 3 out of 12
Pollen 10.80 out of 12
Air Quality Not available.
Flu Activity Not available.
METAR KSKX 042015Z AUTO 25016KT 10SM BKN080 BKN090 OVC110 23/05 A3021 RMK AO1
Pressure 30.21 in
Visibility 10.0 miles
Clouds Mostly Cloudy 8000 ft
Mostly Cloudy 9000 ft
Overcast 11000 ft
Heat Index 77 °F
Dew Point 45 °F
Humidity 40%
Rainfall 0.00 in
Snow Depth Not available.
UV 3 out of 12
Pollen 10.80 out of 12
Air Quality Not available.
Flu Activity Not available.
METAR KSKX 042015Z AUTO 25016KT 10SM BKN080 BKN090 OVC110 23/05 A3021 RMK AO1

10-Day Weather Forecast

×

Almanac

Astronomy

Sep. 04, 2015 Rise Set
Actual Time
Civil Twilight
Nautical Twilight
Astronomical Twilight
Moon
Length of Visible Light
Length of Day
Tomorrow will be .
, % of the Moon is Illuminated

Today's Extremes

State Highs State Lows

Community

WunderPhotos

Upload Photos

1,852,283 photos uploaded!

WunderBlogs® & News

Nearby

Air Quality

  Air Quality AQ Index Pollutant
Not available.

Snow Depth

Station Depth Elevation

Earthquake Activity

City Distance Mag. Time & Date
Minimum magnitude displayed is 2.5.

Coastal Water Temperatures

Place Temperature

Stations

Nearby Weather Stations

Station Location Temp. Windchill Dew Point Humidity Wind Precip. Elev Updated Type